Time;durP1;ratioP1;P1;durP2;ratioP2;P2;SDS_P1;SDS_P2;PMS_P1;PMS_P2;Temp;Humidity;BMP_temperature;BMP_pressure;BME280_temperature;BME280_humidity;BME280_pressure;Samples;Min_cycle;Max_cycle;Signal;HPM_P1;HPM_P2
2022/04/11 00:00:50;;;;;;;5.70;2.20;;;;;;;4.10;81.88;98946.55;109278;1275;137740;-62
2022/04/11 00:03:18;;;;;;;4.40;2.10;;;;;;;4.11;81.96;98949.16;109453;1274;22604;-62
2022/04/11 00:06:06;;;;;;;;;;;;;;;4.08;82.06;98947.63;109356;1274;140809;-59
2022/04/11 00:08:54;;;;;;;3.60;1.90;;;;;;;4.06;82.32;98952.88;109473;1274;22410;-58
2022/04/11 00:11:22;;;;;;;4.80;2.50;;;;;;;4.04;82.43;98950.42;109463;1274;22474;-58
2022/04/11 00:14:10;;;;;;;2.90;1.90;;;;;;;4.02;82.45;98955.02;109343;1274;137517;-59
2022/04/11 00:16:40;;;;;;;5.00;2.30;;;;;;;4.01;82.69;98951.76;109408;1274;22419;-58
2022/04/11 00:19:11;;;;;;;3.90;2.20;;;;;;;4.02;82.90;98947.58;109330;1274;137992;-58
2022/04/11 00:21:59;;;;;;;3.50;2.20;;;;;;;4.03;82.56;98939.20;109465;1274;22390;-59
2022/04/11 00:24:27;;;;;;;5.50;2.10;;;;;;;4.03;82.92;98931.69;109361;1274;138248;-58
2022/04/11 00:27:15;;;;;;;4.90;2.40;;;;;;;4.05;82.74;98938.48;109440;1274;22456;-59
2022/04/11 00:29:44;;;;;;;5.70;2.60;;;;;;;4.06;82.86;98946.44;109378;1274;23601;-59
2022/04/11 00:32:15;;;;;;;6.40;3.70;;;;;;;4.08;83.06;98947.66;109330;1274;138083;-59
2022/04/11 00:34:45;;;;;;;6.20;3.70;;;;;;;4.08;82.86;98949.03;109204;1277;22607;-58
2022/04/11 00:37:13;;;;;;;8.30;4.70;;;;;;;4.08;83.14;98952.68;109296;1275;137657;-59
2022/04/11 00:40:01;;;;;;;4.80;3.10;;;;;;;4.06;83.05;98957.05;109465;1274;23013;-58
2022/04/11 00:42:30;;;;;;;4.90;3.20;;;;;;;4.07;83.20;98955.06;109174;1274;138290;-59
2022/04/11 00:45:03;;;;;;;5.60;2.80;;;;;;;4.08;83.41;98958.85;109369;1275;22518;-58
2022/04/11 00:47:51;;;;;;;4.10;2.30;;;;;;;4.10;83.46;98957.59;109475;1273;22257;-58
2022/04/11 00:50:20;;;;;;;4.90;2.50;;;;;;;4.10;83.39;98959.91;109326;1274;137503;-58
2022/04/11 00:52:53;;;;;;;4.80;2.20;;;;;;;4.10;83.75;98959.49;109370;1274;22481;-58
2022/04/11 00:55:23;;;;;;;4.00;3.00;;;;;;;4.12;83.59;98955.66;109197;1276;138735;-58
2022/04/11 00:57:54;;;;;;;4.10;2.30;;;;;;;4.13;83.50;98954.23;109208;1276;23290;-58
2022/04/11 01:00:22;;;;;;;4.60;2.90;;;;;;;4.12;83.62;98954.04;109330;1273;138503;-58
2022/04/11 01:02:52;;;;;;;4.60;2.50;;;;;;;4.13;83.92;98959.84;109434;1274;22427;-58
2022/04/11 01:05:23;;;;;;;4.60;2.50;;;;;;;4.14;83.75;98965.80;109462;1274;22227;-59
2022/04/11 01:08:05;;;;;;;3.30;2.20;;;;;;;4.16;83.92;98971.77;109352;1274;138271;-59
2022/04/11 01:10:35;;;;;;;4.00;2.60;;;;;;;4.16;84.14;98968.38;109259;1275;22422;-58
2022/04/11 01:13:03;;;;;;;3.90;2.30;;;;;;;4.19;84.11;98972.66;109129;1274;138439;-59
2022/04/11 01:15:33;;;;;;;3.40;2.40;;;;;;;4.19;83.94;98973.74;108532;1274;24131;-58
2022/04/11 01:18:01;;;;;;;6.30;2.80;;;;;;;4.20;83.95;98971.44;109332;1274;138860;-59
2022/04/11 01:20:30;;;;;;;5.50;2.40;;;;;;;4.19;84.00;98971.96;109262;1276;22438;-59
2022/04/11 01:23:14;;;;;;;5.10;2.50;;;;;;;4.21;84.25;98969.19;109477;1274;23209;-59
2022/04/11 01:25:42;;;;;;;4.50;2.60;;;;;;;4.23;84.22;98970.45;109183;1274;139127;-59
2022/04/11 01:28:11;;;;;;;4.70;2.70;;;;;;;4.22;84.16;98964.41;109169;1274;22402;-59
2022/04/11 01:30:39;;;;;;;4.10;2.80;;;;;;;4.22;84.33;98960.18;109258;1274;138497;-59
2022/04/11 01:33:15;;;;;;;6.50;2.60;;;;;;;4.23;84.15;98958.34;109455;1272;22465;-59
2022/04/11 01:35:44;;;;;;;6.90;2.70;;;;;;;4.23;84.21;98960.29;109282;1276;22259;-58
2022/04/11 01:38:12;;;;;;;3.60;2.70;;;;;;;4.23;84.16;98957.59;109072;1275;138056;-58
2022/04/11 01:40:51;;;;;;;7.10;3.70;;;;;;;4.22;84.22;98958.44;109192;1276;22508;-58
2022/04/11 01:43:20;;;;;;;4.80;3.00;;;;;;;4.20;84.03;98958.02;109144;1274;138196;-58
2022/04/11 01:45:49;;;;;;;5.10;3.10;;;;;;;4.20;84.02;98954.48;108019;1277;22653;-58
2022/04/11 01:48:24;;;;;;;6.10;3.50;;;;;;;4.21;84.34;98963.22;109153;1274;137999;-59
2022/04/11 01:50:53;;;;;;;6.90;4.00;;;;;;;4.20;84.15;98963.52;109281;1274;22346;-58
2022/04/11 01:53:22;;;;;;;5.30;3.20;;;;;;;4.20;84.23;98963.66;109381;1274;22452;-59
2022/04/11 01:55:50;;;;;;;7.00;2.90;;;;;;;4.17;84.32;98958.83;109310;1275;139359;-58
2022/04/11 01:58:18;;;;;;;4.10;2.20;;;;;;;4.15;84.47;98950.77;109247;1276;22420;-59
2022/04/11 02:00:48;;;;;;;6.60;2.50;;;;;;;4.16;84.11;98957.71;109162;1276;138085;-58
2022/04/11 02:03:16;;;;;;;3.50;2.20;;;;;;;4.16;84.07;98961.79;109312;1275;23245;-59
2022/04/11 02:05:44;;;;;;;5.40;2.50;;;;;;;4.15;84.36;98961.84;109462;1274;22440;-59
2022/04/11 02:08:14;;;;;;;5.00;2.90;;;;;;;4.15;84.52;98964.04;109071;1275;140044;-59
2022/04/11 02:10:42;;;;;;;6.30;2.80;;;;;;;4.13;84.28;98966.42;109191;1277;22399;-58
2022/04/11 02:13:11;;;;;;;5.60;2.70;;;;;;;4.12;84.19;98967.67;109159;1274;137908;-59
2022/04/11 02:15:59;;;;;;;4.40;2.30;;;;;;;4.12;84.29;98963.79;107972;1274;22558;-58
2022/04/11 02:18:29;;;;;;;4.30;2.60;;;;;;;4.12;84.49;98963.74;104923;1274;137912;-58
2022/04/11 02:21:18;;;;;;;4.30;2.70;;;;;;;4.12;84.38;98963.90;105059;1274;22569;-58
2022/04/11 02:23:47;;;;;;;5.80;3.00;;;;;;;4.12;84.24;98961.95;105035;1274;24943;-58
2022/04/11 02:26:15;;;;;;;5.00;3.20;;;;;;;4.13;84.69;98966.52;104864;1274;137607;-58
2022/04/11 02:28:45;;;;;;;5.20;3.00;;;;;;;4.13;84.38;98966.73;109453;1274;22408;-58
2022/04/11 02:31:14;;;;;;;5.40;3.00;;;;;;;4.13;84.09;98969.45;109089;1277;139575;-59
2022/04/11 02:33:43;;;;;;;8.20;4.10;;;;;;;4.13;84.24;98972.07;109478;1274;22987;-59
2022/04/11 02:36:11;;;;;;;4.20;3.10;;;;;;;4.11;84.26;98973.92;109338;1274;137772;-59
2022/04/11 02:38:40;;;;;;;3.80;2.60;;;;;;;4.09;84.56;98970.79;109378;1275;22266;-58
2022/04/11 02:41:08;;;;;;;9.10;4.20;;;;;;;4.09;84.44;98967.17;109396;1274;22353;-58
2022/04/11 02:43:44;;;;;;;7.30;3.00;;;;;;;4.09;84.67;98961.45;109148;1275;138880;-59
2022/04/11 02:46:13;;;;;;;9.00;4.10;;;;;;;4.10;84.45;98958.09;109249;1277;22502;-59
2022/04/11 02:48:42;;;;;;;12.80;5.70;;;;;;;4.09;84.42;98956.56;109139;1274;138962;-58
2022/04/11 02:51:18;;;;;;;14.90;6.30;;;;;;;4.08;84.54;98959.31;109286;1274;22387;-59
2022/04/11 02:53:51;;;;;;;18.80;6.60;;;;;;;4.04;84.63;98961.54;109292;1275;22520;-58
2022/04/11 02:56:20;;;;;;;19.60;6.90;;;;;;;4.02;84.43;98959.29;109136;1275;137672;-59
2022/04/11 02:58:48;;;;;;;23.60;8.10;;;;;;;3.99;84.58;98962.82;109247;1274;23020;-59
2022/04/11 03:01:17;;;;;;;24.70;9.40;;;;;;;3.94;84.90;98964.29;109107;1276;139591;-58
2022/04/11 03:03:46;;;;;;;32.80;11.70;;;;;;;3.88;84.95;98965.38;109329;1276;22452;-58
2022/04/11 03:06:15;;;;;;;42.10;18.70;;;;;;;3.83;85.00;98970.73;109168;1274;138260;-58
2022/04/11 03:08:44;;;;;;;68.00;31.80;;;;;;;3.80;85.09;98970.75;109226;1277;22464;-58
2022/04/11 03:11:16;;;;;;;56.20;23.00;;;;;;;3.76;85.28;98971.08;109186;1274;22523;-58
2022/04/11 03:13:48;;;;;;;44.70;17.70;;;;;;;3.72;85.44;98968.98;109182;1276;139000;-59
2022/04/11 03:16:31;;;;;;;33.70;11.10;;;;;;;3.67;85.32;98966.19;109321;1274;23574;-59
2022/04/11 03:18:59;;;;;;;29.80;11.20;;;;;;;3.62;85.57;98969.65;109176;1275;140199;-59
2022/04/11 03:21:28;;;;;;;25.90;11.50;;;;;;;3.58;85.77;98973.64;109292;1276;22299;-59
2022/04/11 03:24:03;;;;;;;21.70;9.10;;;;;;;3.58;86.15;98971.38;109289;1274;138746;-59
2022/04/11 03:28:53;;;;;;;21.00;8.10;;;;;;;3.61;86.23;98971.63;101801;1310;545230;-58
2022/04/11 03:31:22;;;;;;;20.10;7.40;;;;;;;3.56;86.17;98970.67;108206;1286;138661;-58
2022/04/11 03:33:50;;;;;;;15.30;7.00;;;;;;;3.54;86.27;98973.64;108234;1286;22429;-58
2022/04/11 03:36:20;;;;;;;15.90;7.30;;;;;;;3.55;86.36;98977.45;108009;1287;137310;-58
2022/04/11 03:38:49;;;;;;;10.80;5.50;;;;;;;3.57;86.41;98983.84;108058;1287;22426;-58
2022/04/11 03:41:18;;;;;;;10.80;5.30;;;;;;;3.57;86.33;98989.73;108100;1287;22440;-58
2022/04/11 03:43:48;;;;;;;8.20;4.30;;;;;;;3.55;86.39;98995.48;108038;1286;138218;-58
2022/04/11 03:46:16;;;;;;;14.40;4.60;;;;;;;3.53;86.40;99002.66;108366;1286;22419;-58
2022/04/11 03:48:45;;;;;;;10.10;4.40;;;;;;;3.52;86.17;99008.85;108338;1286;138512;-58
2022/04/11 03:51:14;;;;;;;9.00;3.90;;;;;;;3.53;86.47;99012.02;108277;1285;22464;-58
2022/04/11 03:53:42;;;;;;;8.90;3.60;;;;;;;3.56;86.30;99009.35;108358;1286;23227;-58
2022/04/11 03:56:13;;;;;;;9.40;3.80;;;;;;;3.57;86.54;99009.00;108384;1286;139136;-58
2022/04/11 03:58:43;;;;;;;7.80;3.80;;;;;;;3.59;86.43;99012.67;108343;1286;22436;-58
2022/04/11 04:01:13;;;;;;;7.90;3.90;;;;;;;3.62;86.66;99017.05;108198;1286;138176;-59
2022/04/11 04:03:42;;;;;;;5.60;3.30;;;;;;;3.65;86.44;99016.23;108349;1285;22438;-59
2022/04/11 04:06:11;;;;;;;6.20;3.40;;;;;;;3.68;86.41;99016.20;108228;1285;138450;-58
2022/04/11 04:08:43;;;;;;;6.90;3.80;;;;;;;3.72;86.54;99016.61;108349;1286;22640;-58
2022/04/11 04:11:28;;;;;;;6.90;4.30;;;;;;;3.81;86.54;99021.27;108449;1285;22497;-58
2022/04/11 04:14:38;;;;;;;10.20;5.80;;;;;;;3.87;86.28;99021.08;107943;1286;137905;-58
2022/04/11 04:17:07;;;;;;;13.00;7.00;;;;;;;3.92;86.12;99013.52;108349;1286;23299;-58
2022/04/11 04:19:47;;;;;;;11.30;5.70;;;;;;;3.95;86.05;99014.73;108241;1286;138031;-58
2022/04/11 04:22:18;;;;;;;9.10;4.70;;;;;;;3.96;85.78;99014.56;108352;1286;23380;-58
2022/04/11 04:24:48;;;;;;;11.80;4.50;;;;;;;3.95;85.86;99016.98;108349;1285;138053;-58
2022/04/11 04:27:17;;;;;;;8.00;3.90;;;;;;;3.97;85.79;99019.39;104575;1286;24729;-58
2022/04/11 04:29:46;;;;;;;8.70;3.70;;;;;;;3.98;85.66;99025.23;108440;1285;23567;-58
2022/04/11 04:32:14;;;;;;;7.00;3.60;;;;;;;3.99;85.70;99030.29;108230;1286;137458;-58
2022/04/11 04:34:43;;;;;;;13.50;4.80;;;;;;;4.03;85.74;99038.80;108336;1286;22430;-58
2022/04/11 04:37:11;;;;;;;7.70;4.40;;;;;;;4.10;85.50;99037.05;108238;1286;138644;-58
2022/04/11 04:39:39;;;;;;;11.90;3.80;;;;;;;4.18;85.26;99029.02;108452;1285;22413;-58
2022/04/11 04:42:08;;;;;;;9.60;4.10;;;;;;;4.27;85.07;99029.44;108328;1285;22460;-58
2022/04/11 04:44:40;;;;;;;8.70;3.90;;;;;;;4.37;84.89;99025.16;108212;1286;139716;-58
2022/04/11 04:47:10;;;;;;;12.10;5.20;;;;;;;4.50;84.67;99029.83;108360;1286;22464;-58
2022/04/11 04:49:42;;;;;;;12.10;4.50;;;;;;;4.66;84.18;99029.96;108316;1285;139396;-59
2022/04/11 04:52:13;;;;;;;12.90;4.80;;;;;;;4.74;82.96;99031.63;108246;1286;22445;-58
2022/04/11 04:54:52;;;;;;;10.00;4.60;;;;;;;4.78;82.48;99032.18;108331;1286;139126;-58
2022/04/11 04:57:21;;;;;;;10.10;4.80;;;;;;;4.83;82.44;99034.09;104415;1287;24317;-58
2022/04/11 04:59:50;;;;;;;11.30;5.20;;;;;;;4.88;81.99;99034.56;108264;1286;23234;-59
2022/04/11 05:02:23;;;;;;;15.80;6.00;;;;;;;4.90;81.87;99038.16;108259;1286;138710;-58
2022/04/11 05:04:52;;;;;;;12.00;5.60;;;;;;;4.93;81.12;99041.30;108371;1286;22533;-58
2022/04/11 05:07:21;;;;;;;11.90;6.00;;;;;;;4.92;80.39;99038.74;108227;1285;138462;-58
2022/04/11 05:09:50;;;;;;;10.90;6.00;;;;;;;4.89;80.22;99039.03;108215;1286;22550;-58
2022/04/11 05:12:21;;;;;;;11.50;6.20;;;;;;;4.92;80.41;99037.17;108225;1286;140294;-58
2022/04/11 05:14:49;;;;;;;11.90;5.40;;;;;;;4.97;80.52;99037.46;108082;1286;22402;-58
2022/04/11 05:17:18;;;;;;;12.80;5.60;;;;;;;5.03;79.94;99039.17;108236;1286;22508;-58
2022/04/11 05:19:46;;;;;;;11.60;5.30;;;;;;;5.07;79.69;99037.75;108123;1286;137749;-59
2022/04/11 05:22:15;;;;;;;10.10;4.50;;;;;;;5.11;79.42;99030.61;108334;1285;22388;-58
2022/04/11 05:24:44;;;;;;;10.70;4.80;;;;;;;5.19;79.04;99030.48;108313;1285;139283;-58
2022/04/11 05:27:12;;;;;;;7.90;4.40;;;;;;;5.31;78.86;99025.30;108513;1285;22414;-59
2022/04/11 05:29:41;;;;;;;9.20;4.30;;;;;;;5.47;78.00;99024.30;108462;1285;23336;-58
2022/04/11 05:32:09;;;;;;;6.00;4.30;;;;;;;5.60;77.80;99026.68;108405;1286;137553;-58
2022/04/11 05:34:37;;;;;;;9.30;3.60;;;;;;;5.72;77.66;99027.43;108381;1285;23292;-58
2022/04/11 05:37:06;;;;;;;11.30;4.10;;;;;;;5.87;76.89;99030.39;108312;1286;138600;-58
2022/04/11 05:39:34;;;;;;;5.80;3.30;;;;;;;6.00;76.85;99034.30;108349;1286;22504;-58
2022/04/11 05:42:03;;;;;;;6.80;3.80;;;;;;;6.14;76.08;99029.17;108423;1285;22514;-58
2022/04/11 05:44:32;;;;;;;7.30;3.80;;;;;;;6.25;75.66;99031.04;108012;1286;137630;-58
2022/04/11 05:47:01;;;;;;;7.40;3.60;;;;;;;6.30;75.34;99029.85;108270;1286;22454;-58
2022/04/11 05:49:42;;;;;;;9.00;3.60;;;;;;;6.35;74.93;99027.44;108229;1286;137945;-59
2022/04/11 05:52:14;;;;;;;7.90;4.10;;;;;;;6.36;74.33;99039.10;108346;1286;23193;-58
2022/04/11 05:54:42;;;;;;;9.00;3.70;;;;;;;6.38;73.98;99039.28;108225;1286;138561;-58
2022/04/11 05:57:10;;;;;;;5.60;3.50;;;;;;;6.38;73.69;99040.48;108527;1285;23526;-59
2022/04/11 05:59:38;;;;;;;7.70;3.60;;;;;;;6.34;73.15;99038.58;108264;1285;23541;-58
2022/04/11 06:02:09;;;;;;;7.00;4.30;;;;;;;6.28;72.71;99041.71;108237;1286;137461;-58
2022/04/11 06:04:39;;;;;;;15.40;7.40;;;;;;;6.24;73.10;99043.42;108366;1286;22511;-58
2022/04/11 06:07:07;;;;;;;8.30;3.80;;;;;;;6.25;73.30;99044.02;108250;1286;138776;-58
2022/04/11 06:09:55;;;;;;;7.70;4.00;;;;;;;6.26;72.85;99045.25;108447;1285;22471;-59
2022/04/11 06:12:24;;;;;;;9.50;4.00;;;;;;;6.25;72.94;99044.02;108161;1287;138218;-58
2022/04/11 06:15:05;;;;;;;8.30;4.10;;;;;;;6.26;72.22;99048.87;108349;1286;22463;-58
2022/04/11 06:17:34;;;;;;;11.30;4.60;;;;;;;6.28;72.74;99061.41;108348;1286;22428;-58
2022/04/11 06:20:04;;;;;;;7.10;4.10;;;;;;;6.30;72.83;99066.16;108232;1286;138638;-58
2022/04/11 06:22:37;;;;;;;12.20;5.10;;;;;;;6.32;72.34;99074.85;108256;1286;23596;-58
2022/04/11 06:25:17;;;;;;;11.10;4.90;;;;;;;6.32;72.01;99080.10;108314;1286;138747;-58
2022/04/11 06:28:05;;;;;;;14.70;4.80;;;;;;;6.34;71.53;99083.13;108509;1285;23244;-58
2022/04/11 06:30:35;;;;;;;11.20;4.60;;;;;;;6.36;71.66;99077.20;108219;1286;137964;-58
2022/04/11 06:33:04;;;;;;;12.60;4.70;;;;;;;6.44;71.74;99076.92;108232;1285;22444;-59
2022/04/11 06:35:33;;;;;;;15.60;4.70;;;;;;;6.50;71.61;99074.05;108345;1287;22272;-58
2022/04/11 06:38:02;;;;;;;11.80;5.20;;;;;;;6.55;71.32;99068.41;108307;1285;137906;-58
2022/04/11 06:40:30;;;;;;;14.40;6.50;;;;;;;6.60;70.63;99069.76;108530;1285;22541;-58
2022/04/11 06:42:59;;;;;;;12.50;5.60;;;;;;;6.63;70.03;99068.02;108247;1286;138528;-58
2022/04/11 06:45:41;;;;;;;13.50;6.60;;;;;;;6.65;70.31;99061.92;108255;1286;22460;-59
2022/04/11 06:48:10;;;;;;;14.70;7.10;;;;;;;6.71;70.35;99063.44;108276;1286;22456;-58
2022/04/11 06:50:40;;;;;;;14.40;6.20;;;;;;;6.74;70.10;99062.36;108246;1286;138018;-58
2022/04/11 06:53:09;;;;;;;12.80;5.90;;;;;;;6.75;69.44;99068.02;108508;1287;22559;-58
2022/04/11 06:55:38;;;;;;;15.50;6.30;;;;;;;6.72;69.45;99068.23;108244;1286;137804;-58
2022/04/11 06:58:07;;;;;;;10.20;5.30;;;;;;;6.71;69.60;99066.92;108517;1285;22449;-58
2022/04/11 07:00:36;;;;;;;12.10;4.90;;;;;;;6.72;69.15;99070.06;108421;1285;140254;-58
2022/04/11 07:03:05;;;;;;;13.30;5.00;;;;;;;6.70;68.77;99064.23;108528;1285;22446;-58
2022/04/11 07:05:34;;;;;;;14.80;5.30;;;;;;;6.69;68.82;99064.38;108516;1285;22260;-58
2022/04/11 07:08:15;;;;;;;13.80;4.70;;;;;;;6.72;68.96;99069.31;108312;1285;137703;-58
2022/04/11 07:10:45;;;;;;;9.70;4.70;;;;;;;6.76;68.30;99063.74;108504;1285;22542;-58
2022/04/11 07:13:14;;;;;;;13.30;5.20;;;;;;;6.77;68.08;99063.50;108344;1285;138733;-58
2022/04/11 07:15:42;;;;;;;11.80;4.80;;;;;;;6.81;67.39;99064.36;108515;1285;22694;-58
2022/04/11 07:18:13;;;;;;;14.30;4.30;;;;;;;6.83;67.52;99064.56;108541;1286;22465;-58
2022/04/11 07:20:42;;;;;;;10.90;4.00;;;;;;;6.84;66.99;99067.56;108407;1285;137798;-58
2022/04/11 07:23:12;;;;;;;6.20;3.80;;;;;;;6.85;66.97;99075.10;108533;1285;22453;-58
2022/04/11 07:25:40;;;;;;;6.40;3.80;;;;;;;6.86;67.26;99074.54;108411;1285;137682;-58
2022/04/11 07:28:10;;;;;;;8.70;4.10;;;;;;;6.88;66.79;99081.19;108497;1285;22437;-58
2022/04/11 07:30:38;;;;;;;8.70;4.50;;;;;;;6.91;66.08;99080.14;108324;1286;137914;-58
2022/04/11 07:33:08;;;;;;;10.60;4.20;;;;;;;6.92;66.74;99076.48;108515;1285;22512;-59
2022/04/11 07:35:36;;;;;;;10.70;4.30;;;;;;;6.95;67.41;99085.09;108538;1285;23128;-58
2022/04/11 07:38:04;;;;;;;9.20;4.20;;;;;;;7.00;66.65;99088.20;108332;1286;137805;-59
2022/04/11 07:40:33;;;;;;;7.00;4.10;;;;;;;7.02;66.13;99093.93;108509;1286;23270;-58
2022/04/11 07:43:01;;;;;;;8.80;3.70;;;;;;;7.01;65.48;99093.75;108336;1286;138055;-58
2022/04/11 07:45:31;;;;;;;7.60;3.60;;;;;;;6.98;65.28;99106.52;108518;1285;22293;-58
2022/04/11 07:47:59;;;;;;;6.70;2.80;;;;;;;6.95;64.88;99105.44;108431;1286;23183;-59
2022/04/11 07:50:29;;;;;;;7.20;3.00;;;;;;;6.92;64.70;99109.19;108294;1286;138030;-60
2022/04/11 07:52:58;;;;;;;6.40;3.00;;;;;;;6.89;64.67;99114.24;108534;1286;22415;-58
2022/04/11 07:55:26;;;;;;;7.30;3.60;;;;;;;6.91;64.85;99113.45;108501;1285;22443;-58
2022/04/11 07:57:58;;;;;;;5.00;3.10;;;;;;;6.97;65.49;99116.91;108427;1285;22480;-58
2022/04/11 08:00:28;;;;;;;13.20;3.60;;;;;;;7.07;65.90;99111.30;108519;1286;22621;-57
2022/04/11 08:02:57;;;;;;;9.90;3.30;;;;;;;7.21;64.95;99112.48;108468;1285;22439;-57
2022/04/11 08:05:25;;;;;;;12.50;4.90;;;;;;;7.30;64.00;99114.66;108515;1285;22450;-58
2022/04/11 08:07:53;;;;;;;17.60;5.60;;;;;;;7.37;64.44;99110.91;108533;1286;23040;-58
2022/04/11 08:10:22;;;;;;;11.40;5.40;;;;;;;7.48;64.91;99109.46;108559;1285;22458;-58
2022/04/11 08:12:57;;;;;;;10.60;4.70;;;;;;;7.61;64.66;99110.95;108570;1286;22415;-58
2022/04/11 08:15:28;;;;;;;12.00;4.60;;;;;;;7.76;63.85;99104.95;108524;1285;23256;-61
2022/04/11 08:18:01;;;;;;;11.30;3.90;;;;;;;7.92;63.61;99107.16;108594;1285;22532;-61
2022/04/11 08:20:29;;;;;;;10.10;4.40;;;;;;;8.03;62.80;99103.35;108566;1286;22665;-62
2022/04/11 08:23:06;;;;;;;7.20;4.00;;;;;;;8.09;62.22;99098.31;108578;1285;22371;-61
2022/04/11 08:25:34;;;;;;;8.90;4.20;;;;;;;8.15;62.27;99088.14;108567;1285;22401;-61
2022/04/11 08:28:03;;;;;;;7.90;3.50;;;;;;;8.23;61.57;99079.02;108510;1286;22484;-62
2022/04/11 08:30:31;;;;;;;8.70;4.30;;;;;;;8.28;60.87;99083.73;108498;1285;22283;-62
2022/04/11 08:32:59;;;;;;;13.90;4.70;;;;;;;8.30;60.38;99087.83;108476;1285;22417;-62
2022/04/11 08:35:28;;;;;;;8.50;4.20;;;;;;;8.34;60.47;99090.90;108585;1285;22302;-62
2022/04/11 08:37:56;;;;;;;9.40;4.00;;;;;;;8.41;60.33;99091.77;108546;1285;22410;-62
2022/04/11 08:40:38;;;;;;;12.90;3.80;;;;;;;8.40;59.81;99082.38;108562;1285;22426;-62
2022/04/11 08:43:08;;;;;;;6.40;4.00;;;;;;;8.33;59.63;99085.67;108337;1286;23060;-62
2022/04/11 08:45:44;;;;;;;8.80;4.10;;;;;;;8.28;59.01;99087.48;107447;1287;22582;-61
2022/04/11 08:48:12;;;;;;;7.00;3.60;;;;;;;8.22;58.74;99088.16;108416;1286;22506;-61
2022/04/11 08:50:41;;;;;;;7.00;3.50;;;;;;;8.17;59.03;99085.66;108611;1285;22432;-61
2022/04/11 08:53:09;;;;;;;12.60;4.50;;;;;;;8.14;59.13;99091.77;108427;1286;23186;-62
2022/04/11 08:55:38;;;;;;;9.20;3.40;;;;;;;8.15;58.89;99088.67;108497;1285;22399;-62
2022/04/11 08:58:06;;;;;;;8.00;3.20;;;;;;;8.18;58.62;99087.52;108586;1286;22498;-62
2022/04/11 09:00:35;;;;;;;5.20;2.90;;;;;;;8.19;58.47;99086.19;108489;1285;22412;-62
2022/04/11 09:03:05;;;;;;;6.50;2.80;;;;;;;8.20;58.99;99085.72;108540;1287;23299;-62
2022/04/11 09:05:34;;;;;;;8.20;3.10;;;;;;;8.26;59.17;99086.42;108586;1285;22415;-62
2022/04/11 09:08:11;;;;;;;10.10;3.70;;;;;;;8.38;58.58;99091.70;108466;1286;22530;-62
2022/04/11 09:10:39;;;;;;;9.30;3.20;;;;;;;8.43;57.90;99098.77;108500;1286;22402;-62
2022/04/11 09:13:09;;;;;;;11.70;3.70;;;;;;;8.43;57.77;99102.17;108406;1286;22521;-62
2022/04/11 09:15:42;;;;;;;11.50;4.70;;;;;;;8.39;57.64;99114.40;108470;1286;23251;-58
2022/04/11 09:18:11;;;;;;;10.30;4.50;;;;;;;8.31;58.17;99114.73;108477;1285;23159;-58
2022/04/11 09:20:42;;;;;;;7.00;3.90;;;;;;;8.30;58.22;99117.19;108528;1285;22422;-58
2022/04/11 09:23:20;;;;;;;5.90;2.60;;;;;;;8.33;57.77;99106.51;108505;1286;23469;-58
2022/04/11 09:25:49;;;;;;;5.70;3.30;;;;;;;8.39;56.48;99109.40;108533;1285;22270;-58
2022/04/11 09:28:17;;;;;;;5.50;2.40;;;;;;;8.40;56.19;99114.20;108379;1287;22286;-58
2022/04/11 09:30:46;;;;;;;4.80;2.10;;;;;;;8.41;56.05;99126.86;108450;1285;23388;-58
2022/04/11 09:33:15;;;;;;;6.80;2.00;;;;;;;8.46;56.29;99120.52;108188;1286;23098;-59
2022/04/11 09:35:45;;;;;;;2.90;1.90;;;;;;;8.55;56.39;99118.65;108600;1286;22425;-58
2022/04/11 09:38:17;;;;;;;3.40;2.60;;;;;;;8.63;56.14;99115.87;108536;1285;22234;-58
2022/04/11 09:40:49;;;;;;;4.20;2.10;;;;;;;8.69;56.01;99117.99;108571;1285;22262;-58
2022/04/11 09:43:27;;;;;;;8.10;2.60;;;;;;;8.75;56.01;99124.92;108539;1285;23375;-58
2022/04/11 09:45:56;;;;;;;7.30;3.60;;;;;;;8.81;55.25;99132.57;108445;1285;22435;-58
2022/04/11 09:48:26;;;;;;;4.50;2.80;;;;;;;8.83;55.04;99128.73;108499;1287;23540;-58
2022/04/11 09:50:55;;;;;;;6.50;2.60;;;;;;;8.78;54.12;99134.73;108443;1286;22280;-59
2022/04/11 09:53:32;;;;;;;5.90;3.10;;;;;;;8.70;54.23;99133.15;108545;1285;22426;-58
2022/04/11 09:56:08;;;;;;;4.80;3.20;;;;;;;8.61;53.96;99132.59;108479;1286;22431;-58
2022/04/11 09:58:39;;;;;;;4.80;2.50;;;;;;;8.53;54.15;99131.06;108426;1286;22400;-58
2022/04/11 10:01:09;;;;;;;8.50;3.40;;;;;;;8.48;54.76;99129.02;108425;1286;23222;-59
2022/04/11 10:03:38;;;;;;;7.40;2.90;;;;;;;8.47;55.30;99121.63;108512;1286;22554;-59
2022/04/11 10:06:07;;;;;;;6.20;3.40;;;;;;;8.50;55.27;99121.65;108363;1287;22509;-58
2022/04/11 10:08:35;;;;;;;5.60;3.10;;;;;;;8.52;55.58;99119.21;108378;1286;22431;-58
2022/04/11 10:11:04;;;;;;;6.50;2.50;;;;;;;8.60;55.63;99117.37;108579;1285;22568;-58
2022/04/11 10:13:33;;;;;;;9.70;3.60;;;;;;;8.66;55.48;99110.48;108579;1285;22469;-58
2022/04/11 10:16:13;;;;;;;6.70;3.20;;;;;;;8.68;54.54;99111.40;108467;1285;23283;-58
2022/04/11 10:18:41;;;;;;;6.00;2.70;;;;;;;8.63;54.21;99125.39;108521;1285;22435;-58
2022/04/11 10:21:26;;;;;;;6.90;2.30;;;;;;;8.61;54.52;99124.91;108564;1286;23247;-58
2022/04/11 10:24:03;;;;;;;4.10;2.40;;;;;;;8.60;53.34;99133.00;108448;1284;22393;-58
2022/04/11 10:26:53;;;;;;;6.70;2.80;;;;;;;8.57;53.57;99127.20;106212;1285;22753;-58
2022/04/11 10:29:36;;;;;;;9.10;2.80;;;;;;;8.56;54.19;99131.86;108588;1287;22668;-58
2022/04/11 10:32:15;;;;;;;5.50;2.60;;;;;;;8.59;54.64;99138.86;108462;1285;23103;-58
2022/04/11 10:34:57;;;;;;;6.10;2.80;;;;;;;8.61;54.36;99137.14;108553;1285;22523;-58
2022/04/11 10:37:27;;;;;;;7.30;2.80;;;;;;;8.60;53.94;99130.23;109591;1273;23291;-58
2022/04/11 10:40:15;;;;;;;8.60;3.50;;;;;;;8.58;53.81;99131.13;109550;1274;22408;-58
2022/04/11 10:43:11;;;;;;;;;;;;;;;8.54;54.04;99124.56;109582;1273;23326;-58
2022/04/11 10:45:45;;;;;;;11.20;4.50;;;;;;;8.52;54.49;99118.95;109601;1274;22426;-58
2022/04/11 10:49:05;;;;;;;9.60;5.00;;;;;;;8.55;54.92;99117.29;109638;1274;22385;-58
2022/04/11 10:51:36;;;;;;;11.40;5.00;;;;;;;8.63;54.72;99111.42;109515;1274;23947;-58
2022/04/11 10:54:19;;;;;;;9.50;3.30;;;;;;;8.69;54.49;99110.72;109564;1274;22239;-58
2022/04/11 10:57:07;;;;;;;8.70;3.60;;;;;;;8.79;53.74;99105.66;105988;1274;25270;-58
2022/04/11 11:00:11;;;;;;;8.10;4.50;;;;;;;8.87;53.62;99106.39;105256;1274;24953;-57
2022/04/11 11:03:11;;;;;;;8.80;3.90;;;;;;;8.95;53.61;99113.42;104825;1281;23991;-58
2022/04/11 11:05:47;;;;;;;9.80;4.40;;;;;;;8.98;52.49;99117.42;104773;1281;24772;-58
2022/04/11 11:08:17;;;;;;;7.20;4.20;;;;;;;8.99;52.29;99113.07;104743;1281;22568;-58
2022/04/11 11:11:31;;;;;;;5.60;3.50;;;;;;;8.95;52.41;99110.70;104707;1281;22616;-58
2022/04/11 11:13:59;;;;;;;9.30;3.20;;;;;;;8.94;51.58;99117.49;108898;1280;23420;-58
2022/04/11 11:16:35;;;;;;;6.50;2.80;;;;;;;8.94;51.41;99125.00;108753;1281;23565;-59
2022/04/11 11:19:20;;;;;;;5.10;2.50;;;;;;;8.91;51.19;99125.36;108960;1281;22538;-58
2022/04/11 11:21:52;;;;;;;5.80;2.90;;;;;;;8.86;51.36;99123.77;108950;1281;22385;-58
2022/04/11 11:24:20;;;;;;;6.30;2.60;;;;;;;8.79;52.09;99121.37;108950;1280;23247;-59
2022/04/11 11:26:53;;;;;;;7.60;2.70;;;;;;;8.77;52.25;99122.48;108920;1281;22511;-59
2022/04/11 11:29:42;;;;;;;14.60;7.20;;;;;;;8.76;52.30;99121.98;108933;1280;23225;-59
2022/04/11 11:32:12;;;;;;;9.50;4.60;;;;;;;8.76;52.68;99126.23;108967;1280;22471;-58
2022/04/11 11:34:41;;;;;;;5.00;3.20;;;;;;;8.77;52.28;99122.66;108980;1281;22492;-58
2022/04/11 11:37:12;;;;;;;5.70;3.30;;;;;;;8.77;52.44;99117.66;109279;1274;23714;-59
2022/04/11 11:39:43;;;;;;;5.50;3.40;;;;;;;8.77;52.29;99123.31;109595;1274;23119;-58
2022/04/11 11:42:18;;;;;;;8.50;4.00;;;;;;;8.77;51.90;99122.44;109541;1274;23623;-58
2022/04/11 11:44:50;;;;;;;5.50;3.70;;;;;;;8.76;52.38;99122.15;109590;1274;23058;-59
2022/04/11 11:47:25;;;;;;;7.10;3.80;;;;;;;8.76;52.46;99120.80;109566;1274;22397;-58
2022/04/11 11:50:02;;;;;;;6.20;3.50;;;;;;;8.75;52.22;99118.93;109585;1274;23040;-58
2022/04/11 11:52:30;;;;;;;9.60;4.00;;;;;;;8.70;52.34;99119.69;109580;1273;22421;-58
2022/04/11 11:55:02;;;;;;;6.70;3.00;;;;;;;8.67;52.71;99122.38;109609;1273;23179;-58